sensor_id;sensor_type;location;lat;lon;timestamp;temperature;humidity
64951;DHT22;51482;47.014;7.652;2024-02-15T00:00:20;6.50;99.90
64951;DHT22;51482;47.014;7.652;2024-02-15T00:02:47;6.40;99.90
64951;DHT22;51482;47.014;7.652;2024-02-15T00:05:13;5.70;99.90
64951;DHT22;51482;47.014;7.652;2024-02-15T00:07:41;6.10;99.90
64951;DHT22;51482;47.014;7.652;2024-02-15T00:10:07;6.10;99.90
64951;DHT22;51482;47.014;7.652;2024-02-15T00:12:34;6.10;99.90
64951;DHT22;51482;47.014;7.652;2024-02-15T00:14:59;6.70;99.90
64951;DHT22;51482;47.014;7.652;2024-02-15T00:17:26;6.00;99.90
64951;DHT22;51482;47.014;7.652;2024-02-15T00:19:52;5.60;99.90
64951;DHT22;51482;47.014;7.652;2024-02-15T00:22:18;5.80;99.90
64951;DHT22;51482;47.014;7.652;2024-02-15T00:24:44;6.50;99.90
64951;DHT22;51482;47.014;7.652;2024-02-15T00:27:10;6.10;99.90
64951;DHT22;51482;47.014;7.652;2024-02-15T00:29:36;6.10;99.90
64951;DHT22;51482;47.014;7.652;2024-02-15T00:32:02;5.70;99.90
64951;DHT22;51482;47.014;7.652;2024-02-15T00:34:29;6.00;99.90
64951;DHT22;51482;47.014;7.652;2024-02-15T00:36:54;6.40;99.90
64951;DHT22;51482;47.014;7.652;2024-02-15T00:39:20;6.40;99.90
64951;DHT22;51482;47.014;7.652;2024-02-15T00:41:46;5.70;99.90
64951;DHT22;51482;47.014;7.652;2024-02-15T00:44:12;6.10;99.90
64951;DHT22;51482;47.014;7.652;2024-02-15T00:46:38;5.70;99.90
64951;DHT22;51482;47.014;7.652;2024-02-15T00:49:04;5.70;99.90
64951;DHT22;51482;47.014;7.652;2024-02-15T00:51:35;5.60;99.90
64951;DHT22;51482;47.014;7.652;2024-02-15T00:54:01;6.00;99.90
64951;DHT22;51482;47.014;7.652;2024-02-15T00:56:27;6.10;99.90
64951;DHT22;51482;47.014;7.652;2024-02-15T00:58:55;5.60;99.90
64951;DHT22;51482;47.014;7.652;2024-02-15T01:01:21;6.10;99.90
64951;DHT22;51482;47.014;7.652;2024-02-15T01:03:46;5.50;99.90
64951;DHT22;51482;47.014;7.652;2024-02-15T01:06:13;6.10;99.90
64951;DHT22;51482;47.014;7.652;2024-02-15T01:08:38;5.90;99.90
64951;DHT22;51482;47.014;7.652;2024-02-15T01:11:04;5.20;99.90
64951;DHT22;51482;47.014;7.652;2024-02-15T01:13:30;5.30;99.90
64951;DHT22;51482;47.014;7.652;2024-02-15T01:15:55;5.80;99.90
64951;DHT22;51482;47.014;7.652;2024-02-15T01:18:21;5.10;99.90
64951;DHT22;51482;47.014;7.652;2024-02-15T01:20:47;5.70;99.90
64951;DHT22;51482;47.014;7.652;2024-02-15T01:23:12;5.70;99.90
64951;DHT22;51482;47.014;7.652;2024-02-15T01:25:38;5.10;99.90
64951;DHT22;51482;47.014;7.652;2024-02-15T01:28:05;5.10;99.90
64951;DHT22;51482;47.014;7.652;2024-02-15T01:30:31;5.60;99.90
64951;DHT22;51482;47.014;7.652;2024-02-15T01:32:57;5.10;99.90
64951;DHT22;51482;47.014;7.652;2024-02-15T01:35:23;5.60;99.90
64951;DHT22;51482;47.014;7.652;2024-02-15T01:37:50;5.10;99.90
64951;DHT22;51482;47.014;7.652;2024-02-15T01:40:16;5.20;99.90
64951;DHT22;51482;47.014;7.652;2024-02-15T01:42:44;5.50;99.90
64951;DHT22;51482;47.014;7.652;2024-02-15T01:45:09;5.10;99.90
64951;DHT22;51482;47.014;7.652;2024-02-15T01:47:38;5.10;99.90
64951;DHT22;51482;47.014;7.652;2024-02-15T01:50:06;5.10;99.90
64951;DHT22;51482;47.014;7.652;2024-02-15T01:52:32;5.10;99.90
64951;DHT22;51482;47.014;7.652;2024-02-15T01:54:58;5.10;99.90
64951;DHT22;51482;47.014;7.652;2024-02-15T01:57:24;5.70;99.90
64951;DHT22;51482;47.014;7.652;2024-02-15T01:59:51;4.90;99.90
64951;DHT22;51482;47.014;7.652;2024-02-15T02:02:22;5.20;99.90
64951;DHT22;51482;47.014;7.652;2024-02-15T02:04:47;4.80;99.90
64951;DHT22;51482;47.014;7.652;2024-02-15T02:07:13;5.10;99.90
64951;DHT22;51482;47.014;7.652;2024-02-15T02:09:40;4.70;99.90
64951;DHT22;51482;47.014;7.652;2024-02-15T02:12:05;4.80;99.90
64951;DHT22;51482;47.014;7.652;2024-02-15T02:14:32;4.80;99.90
64951;DHT22;51482;47.014;7.652;2024-02-15T02:17:13;4.50;99.90
64951;DHT22;51482;47.014;7.652;2024-02-15T02:19:39;4.30;99.90
64951;DHT22;51482;47.014;7.652;2024-02-15T02:22:05;5.40;99.90
64951;DHT22;51482;47.014;7.652;2024-02-15T02:24:33;4.80;99.90
64951;DHT22;51482;47.014;7.652;2024-02-15T02:27:04;4.30;99.90
64951;DHT22;51482;47.014;7.652;2024-02-15T02:29:30;4.80;99.90
64951;DHT22;51482;47.014;7.652;2024-02-15T02:31:57;4.80;99.90
64951;DHT22;51482;47.014;7.652;2024-02-15T02:34:22;5.20;99.90
64951;DHT22;51482;47.014;7.652;2024-02-15T02:36:48;5.10;99.90
64951;DHT22;51482;47.014;7.652;2024-02-15T02:39:15;5.10;99.90
64951;DHT22;51482;47.014;7.652;2024-02-15T02:41:42;5.00;99.90
64951;DHT22;51482;47.014;7.652;2024-02-15T02:44:08;4.50;99.90
64951;DHT22;51482;47.014;7.652;2024-02-15T02:46:33;4.90;99.90
64951;DHT22;51482;47.014;7.652;2024-02-15T02:48:59;4.90;99.90
64951;DHT22;51482;47.014;7.652;2024-02-15T02:51:24;4.30;99.90
64951;DHT22;51482;47.014;7.652;2024-02-15T02:53:50;4.30;99.90
64951;DHT22;51482;47.014;7.652;2024-02-15T02:59:52;4.90;99.90
64951;DHT22;51482;47.014;7.652;2024-02-15T03:02:18;4.50;99.90
64951;DHT22;51482;47.014;7.652;2024-02-15T03:04:43;4.30;99.90
64951;DHT22;51482;47.014;7.652;2024-02-15T03:07:09;4.60;99.90
64951;DHT22;51482;47.014;7.652;2024-02-15T03:09:35;4.80;99.90
64951;DHT22;51482;47.014;7.652;2024-02-15T03:12:02;4.30;99.90
64951;DHT22;51482;47.014;7.652;2024-02-15T03:14:28;4.30;99.90
64951;DHT22;51482;47.014;7.652;2024-02-15T03:16:55;4.80;99.90
64951;DHT22;51482;47.014;7.652;2024-02-15T03:19:21;4.30;99.90
64951;DHT22;51482;47.014;7.652;2024-02-15T03:21:48;4.70;99.90
64951;DHT22;51482;47.014;7.652;2024-02-15T03:24:13;4.80;99.90
64951;DHT22;51482;47.014;7.652;2024-02-15T03:26:39;4.30;99.90
64951;DHT22;51482;47.014;7.652;2024-02-15T03:29:05;4.70;99.90
64951;DHT22;51482;47.014;7.652;2024-02-15T03:31:33;4.70;99.90
64951;DHT22;51482;47.014;7.652;2024-02-15T03:34:00;4.60;99.90
64951;DHT22;51482;47.014;7.652;2024-02-15T03:36:26;4.20;99.90
64951;DHT22;51482;47.014;7.652;2024-02-15T03:38:52;4.20;99.90
64951;DHT22;51482;47.014;7.652;2024-02-15T03:41:19;4.20;99.90
64951;DHT22;51482;47.014;7.652;2024-02-15T03:43:45;4.70;99.90
64951;DHT22;51482;47.014;7.652;2024-02-15T03:46:11;4.30;99.90
64951;DHT22;51482;47.014;7.652;2024-02-15T03:48:41;4.80;99.90
64951;DHT22;51482;47.014;7.652;2024-02-15T03:51:07;4.30;99.90
64951;DHT22;51482;47.014;7.652;2024-02-15T03:53:35;4.60;99.90
64951;DHT22;51482;47.014;7.652;2024-02-15T03:56:04;4.00;99.90
64951;DHT22;51482;47.014;7.652;2024-02-15T03:58:29;4.20;99.90
64951;DHT22;51482;47.014;7.652;2024-02-15T04:00:58;4.50;99.90
64951;DHT22;51482;47.014;7.652;2024-02-15T04:03:24;4.50;99.90
64951;DHT22;51482;47.014;7.652;2024-02-15T04:05:49;4.00;99.90
64951;DHT22;51482;47.014;7.652;2024-02-15T04:08:15;4.40;99.90
64951;DHT22;51482;47.014;7.652;2024-02-15T04:10:42;4.00;99.90
64951;DHT22;51482;47.014;7.652;2024-02-15T04:13:08;3.70;99.90
64951;DHT22;51482;47.014;7.652;2024-02-15T04:15:33;3.70;99.90
64951;DHT22;51482;47.014;7.652;2024-02-15T04:18:00;4.10;99.90
64951;DHT22;51482;47.014;7.652;2024-02-15T04:20:26;4.00;99.90
64951;DHT22;51482;47.014;7.652;2024-02-15T04:22:52;3.50;99.90
64951;DHT22;51482;47.014;7.652;2024-02-15T04:25:19;4.50;99.90
64951;DHT22;51482;47.014;7.652;2024-02-15T04:27:48;4.00;99.90
64951;DHT22;51482;47.014;7.652;2024-02-15T04:30:14;4.50;99.90
64951;DHT22;51482;47.014;7.652;2024-02-15T04:32:40;4.30;99.90
64951;DHT22;51482;47.014;7.652;2024-02-15T04:35:06;4.50;99.90
64951;DHT22;51482;47.014;7.652;2024-02-15T04:37:32;3.90;99.90
64951;DHT22;51482;47.014;7.652;2024-02-15T04:40:00;4.40;99.90
64951;DHT22;51482;47.014;7.652;2024-02-15T04:42:35;4.50;99.90
64951;DHT22;51482;47.014;7.652;2024-02-15T04:45:06;4.00;99.90
64951;DHT22;51482;47.014;7.652;2024-02-15T04:47:36;4.10;99.90
64951;DHT22;51482;47.014;7.652;2024-02-15T04:50:02;3.80;99.90
64951;DHT22;51482;47.014;7.652;2024-02-15T04:52:28;4.10;99.90
64951;DHT22;51482;47.014;7.652;2024-02-15T04:54:54;4.20;99.90
64951;DHT22;51482;47.014;7.652;2024-02-15T04:57:20;4.70;99.90
64951;DHT22;51482;47.014;7.652;2024-02-15T04:59:47;4.60;99.90
64951;DHT22;51482;47.014;7.652;2024-02-15T05:02:14;4.60;99.90
64951;DHT22;51482;47.014;7.652;2024-02-15T05:04:39;4.90;99.90
64951;DHT22;51482;47.014;7.652;2024-02-15T05:07:08;4.30;99.90
64951;DHT22;51482;47.014;7.652;2024-02-15T05:09:34;4.80;99.90
64951;DHT22;51482;47.014;7.652;2024-02-15T05:12:00;4.20;99.90
64951;DHT22;51482;47.014;7.652;2024-02-15T05:14:30;4.70;99.90
64951;DHT22;51482;47.014;7.652;2024-02-15T05:16:56;4.20;99.90
64951;DHT22;51482;47.014;7.652;2024-02-15T05:19:21;4.80;99.90
64951;DHT22;51482;47.014;7.652;2024-02-15T05:21:47;4.20;99.90
64951;DHT22;51482;47.014;7.652;2024-02-15T05:24:14;4.70;99.90
64951;DHT22;51482;47.014;7.652;2024-02-15T05:26:40;4.20;99.90
64951;DHT22;51482;47.014;7.652;2024-02-15T05:29:08;4.20;99.90
64951;DHT22;51482;47.014;7.652;2024-02-15T05:31:34;4.30;99.90
64951;DHT22;51482;47.014;7.652;2024-02-15T05:34:04;4.30;99.90
64951;DHT22;51482;47.014;7.652;2024-02-15T05:36:30;4.30;99.90
64951;DHT22;51482;47.014;7.652;2024-02-15T05:38:56;4.20;99.90
64951;DHT22;51482;47.014;7.652;2024-02-15T05:41:22;4.80;99.90
64951;DHT22;51482;47.014;7.652;2024-02-15T05:43:49;4.30;99.90
64951;DHT22;51482;47.014;7.652;2024-02-15T05:46:17;4.30;99.90
64951;DHT22;51482;47.014;7.652;2024-02-15T05:48:43;4.30;99.90
64951;DHT22;51482;47.014;7.652;2024-02-15T05:51:08;4.30;99.90
64951;DHT22;51482;47.014;7.652;2024-02-15T05:53:34;4.30;99.90
64951;DHT22;51482;47.014;7.652;2024-02-15T05:56:07;4.30;99.90
64951;DHT22;51482;47.014;7.652;2024-02-15T05:58:33;4.30;99.90
64951;DHT22;51482;47.014;7.652;2024-02-15T06:00:59;4.40;99.90
64951;DHT22;51482;47.014;7.652;2024-02-15T06:03:30;4.50;99.90
64951;DHT22;51482;47.014;7.652;2024-02-15T06:06:00;3.90;99.90
64951;DHT22;51482;47.014;7.652;2024-02-15T06:08:30;4.40;99.90
64951;DHT22;51482;47.014;7.652;2024-02-15T06:10:56;4.50;99.90
64951;DHT22;51482;47.014;7.652;2024-02-15T06:13:22;4.90;99.90
64951;DHT22;51482;47.014;7.652;2024-02-15T06:15:49;4.90;99.90
64951;DHT22;51482;47.014;7.652;2024-02-15T06:18:21;4.40;99.90
64951;DHT22;51482;47.014;7.652;2024-02-15T06:20:49;4.40;99.90
64951;DHT22;51482;47.014;7.652;2024-02-15T06:23:16;4.50;99.90
64951;DHT22;51482;47.014;7.652;2024-02-15T06:25:43;4.50;99.90
64951;DHT22;51482;47.014;7.652;2024-02-15T06:28:09;4.50;99.90
64951;DHT22;51482;47.014;7.652;2024-02-15T06:30:53;4.50;99.90
64951;DHT22;51482;47.014;7.652;2024-02-15T06:33:37;4.50;99.90
64951;DHT22;51482;47.014;7.652;2024-02-15T06:36:22;4.50;99.90
64951;DHT22;51482;47.014;7.652;2024-02-15T06:39:06;4.00;99.90
64951;DHT22;51482;47.014;7.652;2024-02-15T06:41:50;4.50;99.90
64951;DHT22;51482;47.014;7.652;2024-02-15T06:44:15;4.50;99.90
64951;DHT22;51482;47.014;7.652;2024-02-15T06:46:41;4.50;99.90
64951;DHT22;51482;47.014;7.652;2024-02-15T06:49:06;5.10;99.90
64951;DHT22;51482;47.014;7.652;2024-02-15T06:51:32;4.60;99.90
64951;DHT22;51482;47.014;7.652;2024-02-15T06:53:57;4.60;99.90
64951;DHT22;51482;47.014;7.652;2024-02-15T06:56:23;4.60;99.90
64951;DHT22;51482;47.014;7.652;2024-02-15T06:58:50;4.70;99.90
64951;DHT22;51482;47.014;7.652;2024-02-15T07:01:15;4.60;99.90
64951;DHT22;51482;47.014;7.652;2024-02-15T07:03:43;4.60;99.90
64951;DHT22;51482;47.014;7.652;2024-02-15T07:06:10;4.60;99.90
64951;DHT22;51482;47.014;7.652;2024-02-15T07:08:39;4.60;99.90
64951;DHT22;51482;47.014;7.652;2024-02-15T07:11:07;4.90;99.90
64951;DHT22;51482;47.014;7.652;2024-02-15T07:13:37;4.00;99.90
64951;DHT22;51482;47.014;7.652;2024-02-15T07:16:09;4.60;99.90
64951;DHT22;51482;47.014;7.652;2024-02-15T07:18:35;4.60;99.90
64951;DHT22;51482;47.014;7.652;2024-02-15T07:21:00;4.70;99.90
64951;DHT22;51482;47.014;7.652;2024-02-15T07:23:29;4.70;99.90
64951;DHT22;51482;47.014;7.652;2024-02-15T07:25:54;4.70;99.90
64951;DHT22;51482;47.014;7.652;2024-02-15T07:28:20;4.80;99.90
64951;DHT22;51482;47.014;7.652;2024-02-15T07:30:46;4.80;99.90
64951;DHT22;51482;47.014;7.652;2024-02-15T07:33:14;5.30;99.90
64951;DHT22;51482;47.014;7.652;2024-02-15T07:35:41;5.50;99.90
64951;DHT22;51482;47.014;7.652;2024-02-15T07:38:08;5.50;99.90
64951;DHT22;51482;47.014;7.652;2024-02-15T07:40:33;5.50;99.90
64951;DHT22;51482;47.014;7.652;2024-02-15T07:42:59;5.50;99.90
64951;DHT22;51482;47.014;7.652;2024-02-15T07:45:24;5.60;99.90
64951;DHT22;51482;47.014;7.652;2024-02-15T07:47:50;5.60;99.90
64951;DHT22;51482;47.014;7.652;2024-02-15T07:50:17;5.60;99.90
64951;DHT22;51482;47.014;7.652;2024-02-15T07:52:46;5.80;99.90
64951;DHT22;51482;47.014;7.652;2024-02-15T07:55:13;6.40;99.90
64951;DHT22;51482;47.014;7.652;2024-02-15T07:57:39;6.00;99.90
64951;DHT22;51482;47.014;7.652;2024-02-15T08:00:05;6.20;99.90
64951;DHT22;51482;47.014;7.652;2024-02-15T08:02:37;6.40;99.90
64951;DHT22;51482;47.014;7.652;2024-02-15T08:05:03;6.40;99.90
64951;DHT22;51482;47.014;7.652;2024-02-15T08:07:31;6.40;99.90
64951;DHT22;51482;47.014;7.652;2024-02-15T08:10:00;6.50;99.90
64951;DHT22;51482;47.014;7.652;2024-02-15T08:12:25;6.50;99.90
64951;DHT22;51482;47.014;7.652;2024-02-15T08:14:51;7.00;99.90
64951;DHT22;51482;47.014;7.652;2024-02-15T08:17:17;6.50;99.90
64951;DHT22;51482;47.014;7.652;2024-02-15T08:19:42;6.60;99.90
64951;DHT22;51482;47.014;7.652;2024-02-15T08:22:08;6.60;99.90
64951;DHT22;51482;47.014;7.652;2024-02-15T08:24:34;6.70;99.90
64951;DHT22;51482;47.014;7.652;2024-02-15T08:27:01;6.80;99.90
64951;DHT22;51482;47.014;7.652;2024-02-15T08:29:27;6.90;99.90
64951;DHT22;51482;47.014;7.652;2024-02-15T08:31:52;7.10;99.90
64951;DHT22;51482;47.014;7.652;2024-02-15T08:34:18;7.20;99.90
64951;DHT22;51482;47.014;7.652;2024-02-15T08:36:45;7.30;99.90
64951;DHT22;51482;47.014;7.652;2024-02-15T08:39:10;7.40;99.90
64951;DHT22;51482;47.014;7.652;2024-02-15T08:41:38;7.40;99.90
64951;DHT22;51482;47.014;7.652;2024-02-15T08:44:04;7.50;99.90
64951;DHT22;51482;47.014;7.652;2024-02-15T08:46:34;7.70;99.90
64951;DHT22;51482;47.014;7.652;2024-02-15T08:49:01;7.70;99.90
64951;DHT22;51482;47.014;7.652;2024-02-15T08:51:31;7.90;99.90
64951;DHT22;51482;47.014;7.652;2024-02-15T08:53:58;8.10;99.90
64951;DHT22;51482;47.014;7.652;2024-02-15T08:56:23;8.80;99.90
64951;DHT22;51482;47.014;7.652;2024-02-15T08:58:49;8.50;99.90
64951;DHT22;51482;47.014;7.652;2024-02-15T09:01:15;8.60;99.90
64951;DHT22;51482;47.014;7.652;2024-02-15T09:03:41;8.80;99.90
64951;DHT22;51482;47.014;7.652;2024-02-15T09:06:06;9.50;99.90
64951;DHT22;51482;47.014;7.652;2024-02-15T09:08:33;9.10;99.90
64951;DHT22;51482;47.014;7.652;2024-02-15T09:10:58;9.20;99.90
64951;DHT22;51482;47.014;7.652;2024-02-15T09:13:24;9.30;99.90
64951;DHT22;51482;47.014;7.652;2024-02-15T09:15:50;9.50;99.90
64951;DHT22;51482;47.014;7.652;2024-02-15T09:18:19;9.70;99.90
64951;DHT22;51482;47.014;7.652;2024-02-15T09:20:48;9.80;99.90
64951;DHT22;51482;47.014;7.652;2024-02-15T09:23:14;10.00;99.90
64951;DHT22;51482;47.014;7.652;2024-02-15T09:25:40;10.30;99.90
64951;DHT22;51482;47.014;7.652;2024-02-15T09:28:06;10.60;99.90
64951;DHT22;51482;47.014;7.652;2024-02-15T09:30:31;10.90;99.90
64951;DHT22;51482;47.014;7.652;2024-02-15T09:32:57;11.30;99.90
64951;DHT22;51482;47.014;7.652;2024-02-15T09:35:23;11.80;99.90
64951;DHT22;51482;47.014;7.652;2024-02-15T09:37:49;12.20;99.90
64951;DHT22;51482;47.014;7.652;2024-02-15T09:40:16;12.50;99.90
64951;DHT22;51482;47.014;7.652;2024-02-15T09:42:42;12.80;99.90
64951;DHT22;51482;47.014;7.652;2024-02-15T09:45:11;13.10;99.90
64951;DHT22;51482;47.014;7.652;2024-02-15T09:47:44;13.20;99.90
64951;DHT22;51482;47.014;7.652;2024-02-15T09:50:11;13.50;99.90
64951;DHT22;51482;47.014;7.652;2024-02-15T09:52:49;14.40;99.90
64951;DHT22;51482;47.014;7.652;2024-02-15T09:55:15;14.10;99.90
64951;DHT22;51482;47.014;7.652;2024-02-15T09:57:46;14.40;99.90
64951;DHT22;51482;47.014;7.652;2024-02-15T10:00:12;14.70;99.90
64951;DHT22;51482;47.014;7.652;2024-02-15T10:02:47;15.00;99.90
64951;DHT22;51482;47.014;7.652;2024-02-15T10:05:13;15.30;99.90
64951;DHT22;51482;47.014;7.652;2024-02-15T10:07:42;15.50;99.90
64951;DHT22;51482;47.014;7.652;2024-02-15T10:10:15;15.60;99.90
64951;DHT22;51482;47.014;7.652;2024-02-15T10:12:54;15.80;99.90
64951;DHT22;51482;47.014;7.652;2024-02-15T10:15:39;15.90;99.90
64951;DHT22;51482;47.014;7.652;2024-02-15T10:18:09;15.90;99.90
64951;DHT22;51482;47.014;7.652;2024-02-15T10:20:41;15.90;99.90
64951;DHT22;51482;47.014;7.652;2024-02-15T10:25:35;15.30;97.70
64951;DHT22;51482;47.014;7.652;2024-02-15T10:28:09;15.80;99.70
64951;DHT22;51482;47.014;7.652;2024-02-15T10:30:36;15.70;99.40
64951;DHT22;51482;47.014;7.652;2024-02-15T10:33:03;16.00;98.10
64951;DHT22;51482;47.014;7.652;2024-02-15T10:35:28;16.30;98.90
64951;DHT22;51482;47.014;7.652;2024-02-15T10:38:08;16.40;98.90
64951;DHT22;51482;47.014;7.652;2024-02-15T10:40:35;16.60;97.00
64951;DHT22;51482;47.014;7.652;2024-02-15T10:43:03;16.70;96.30
64951;DHT22;51482;47.014;7.652;2024-02-15T10:45:31;16.90;95.10
64951;DHT22;51482;47.014;7.652;2024-02-15T10:47:56;17.10;95.10
64951;DHT22;51482;47.014;7.652;2024-02-15T10:50:23;17.10;93.00
64951;DHT22;51482;47.014;7.652;2024-02-15T10:52:55;17.90;95.20
64951;DHT22;51482;47.014;7.652;2024-02-15T10:55:40;17.40;94.40
64951;DHT22;51482;47.014;7.652;2024-02-15T10:58:06;17.70;94.00
64951;DHT22;51482;47.014;7.652;2024-02-15T11:00:33;18.00;92.30
64951;DHT22;51482;47.014;7.652;2024-02-15T11:03:03;17.70;91.80
64951;DHT22;51482;47.014;7.652;2024-02-15T11:05:34;17.60;92.50
64951;DHT22;51482;47.014;7.652;2024-02-15T11:08:04;17.30;90.10
64951;DHT22;51482;47.014;7.652;2024-02-15T11:10:32;17.10;92.20
64951;DHT22;51482;47.014;7.652;2024-02-15T11:12:58;16.90;92.60
64951;DHT22;51482;47.014;7.652;2024-02-15T11:15:44;16.60;91.10
64951;DHT22;51482;47.014;7.652;2024-02-15T11:18:46;16.40;91.70
64951;DHT22;51482;47.014;7.652;2024-02-15T11:21:15;16.40;93.10
64951;DHT22;51482;47.014;7.652;2024-02-15T11:23:41;16.70;94.30
64951;DHT22;51482;47.014;7.652;2024-02-15T11:26:44;16.40;94.20
64951;DHT22;51482;47.014;7.652;2024-02-15T11:29:52;16.70;99.90
64951;DHT22;51482;47.014;7.652;2024-02-15T11:32:40;17.20;99.90
64951;DHT22;51482;47.014;7.652;2024-02-15T11:35:09;17.50;99.90
64951;DHT22;51482;47.014;7.652;2024-02-15T11:40:17;17.50;99.90
64951;DHT22;51482;47.014;7.652;2024-02-15T11:42:43;17.50;96.90
64951;DHT22;51482;47.014;7.652;2024-02-15T11:45:09;17.50;99.90
64951;DHT22;51482;47.014;7.652;2024-02-15T11:47:39;17.70;99.60
64951;DHT22;51482;47.014;7.652;2024-02-15T11:50:11;17.60;95.10
64951;DHT22;51482;47.014;7.652;2024-02-15T11:52:39;17.10;94.00
64951;DHT22;51482;47.014;7.652;2024-02-15T11:55:06;17.10;94.40
64951;DHT22;51482;47.014;7.652;2024-02-15T11:57:38;17.10;92.90
64951;DHT22;51482;47.014;7.652;2024-02-15T12:00:23;17.00;93.00
64951;DHT22;51482;47.014;7.652;2024-02-15T12:03:08;16.90;92.50
64951;DHT22;51482;47.014;7.652;2024-02-15T12:05:56;16.80;92.10
64951;DHT22;51482;47.014;7.652;2024-02-15T12:08:46;17.20;92.10
64951;DHT22;51482;47.014;7.652;2024-02-15T12:11:31;17.20;93.30
64951;DHT22;51482;47.014;7.652;2024-02-15T12:14:15;17.50;92.00
64951;DHT22;51482;47.014;7.652;2024-02-15T12:17:10;17.40;91.30
64951;DHT22;51482;47.014;7.652;2024-02-15T12:19:56;17.40;90.90
64951;DHT22;51482;47.014;7.652;2024-02-15T12:22:43;17.50;92.00
64951;DHT22;51482;47.014;7.652;2024-02-15T12:25:14;17.30;91.40
64951;DHT22;51482;47.014;7.652;2024-02-15T12:27:43;17.60;91.70
64951;DHT22;51482;47.014;7.652;2024-02-15T12:30:14;17.50;90.00
64951;DHT22;51482;47.014;7.652;2024-02-15T12:32:40;17.10;88.50
64951;DHT22;51482;47.014;7.652;2024-02-15T12:35:16;17.30;90.60
64951;DHT22;51482;47.014;7.652;2024-02-15T12:37:45;17.10;88.50
64951;DHT22;51482;47.014;7.652;2024-02-15T12:40:17;17.10;90.10
64951;DHT22;51482;47.014;7.652;2024-02-15T12:42:44;17.10;90.50
64951;DHT22;51482;47.014;7.652;2024-02-15T12:45:17;17.20;91.60
64951;DHT22;51482;47.014;7.652;2024-02-15T12:47:52;17.30;91.00
64951;DHT22;51482;47.014;7.652;2024-02-15T12:50:20;17.30;89.20
64951;DHT22;51482;47.014;7.652;2024-02-15T12:52:47;17.00;89.30
64951;DHT22;51482;47.014;7.652;2024-02-15T12:55:15;17.40;90.40
64951;DHT22;51482;47.014;7.652;2024-02-15T12:57:43;17.10;90.80
64951;DHT22;51482;47.014;7.652;2024-02-15T13:00:12;17.00;91.30
64951;DHT22;51482;47.014;7.652;2024-02-15T13:02:43;17.00;91.80
64951;DHT22;51482;47.014;7.652;2024-02-15T13:05:09;16.90;91.50
64951;DHT22;51482;47.014;7.652;2024-02-15T13:07:36;17.10;91.20
64951;DHT22;51482;47.014;7.652;2024-02-15T13:10:02;16.80;91.20
64951;DHT22;51482;47.014;7.652;2024-02-15T13:12:29;16.10;90.80
64951;DHT22;51482;47.014;7.652;2024-02-15T13:14:54;16.60;90.90
64951;DHT22;51482;47.014;7.652;2024-02-15T13:17:20;16.50;90.60
64951;DHT22;51482;47.014;7.652;2024-02-15T13:19:47;16.30;91.10
64951;DHT22;51482;47.014;7.652;2024-02-15T13:22:14;16.20;90.60
64951;DHT22;51482;47.014;7.652;2024-02-15T13:24:44;16.10;91.60
64951;DHT22;51482;47.014;7.652;2024-02-15T13:27:10;16.30;91.10
64951;DHT22;51482;47.014;7.652;2024-02-15T13:29:40;16.10;91.50
64951;DHT22;51482;47.014;7.652;2024-02-15T13:32:06;15.80;91.80
64951;DHT22;51482;47.014;7.652;2024-02-15T13:34:32;15.80;91.80
64951;DHT22;51482;47.014;7.652;2024-02-15T13:37:01;15.80;92.50
64951;DHT22;51482;47.014;7.652;2024-02-15T13:39:29;15.80;92.40
64951;DHT22;51482;47.014;7.652;2024-02-15T13:41:59;16.20;91.30
64951;DHT22;51482;47.014;7.652;2024-02-15T13:44:25;15.60;90.70
64951;DHT22;51482;47.014;7.652;2024-02-15T13:46:51;15.60;90.30
64951;DHT22;51482;47.014;7.652;2024-02-15T13:49:16;15.50;90.70
64951;DHT22;51482;47.014;7.652;2024-02-15T13:51:42;16.20;90.60
64951;DHT22;51482;47.014;7.652;2024-02-15T13:54:08;14.90;90.40
64951;DHT22;51482;47.014;7.652;2024-02-15T13:56:34;15.50;90.90
64951;DHT22;51482;47.014;7.652;2024-02-15T13:58:59;15.30;90.90
64951;DHT22;51482;47.014;7.652;2024-02-15T14:01:25;15.30;91.20
64951;DHT22;51482;47.014;7.652;2024-02-15T14:03:50;15.20;91.10
64951;DHT22;51482;47.014;7.652;2024-02-15T14:06:17;15.20;92.20
64951;DHT22;51482;47.014;7.652;2024-02-15T14:08:44;16.10;91.20
64951;DHT22;51482;47.014;7.652;2024-02-15T14:11:09;15.10;91.60
64951;DHT22;51482;47.014;7.652;2024-02-15T14:13:35;15.00;90.70
64951;DHT22;51482;47.014;7.652;2024-02-15T14:16:01;15.00;91.50
64951;DHT22;51482;47.014;7.652;2024-02-15T14:18:28;15.00;92.40
64951;DHT22;51482;47.014;7.652;2024-02-15T14:20:54;15.00;93.40
64951;DHT22;51482;47.014;7.652;2024-02-15T14:23:20;15.10;93.80
64951;DHT22;51482;47.014;7.652;2024-02-15T14:25:45;15.00;93.40
64951;DHT22;51482;47.014;7.652;2024-02-15T14:28:11;15.00;93.70
64951;DHT22;51482;47.014;7.652;2024-02-15T14:30:39;15.00;94.10
64951;DHT22;51482;47.014;7.652;2024-02-15T14:33:23;15.00;93.80
64951;DHT22;51482;47.014;7.652;2024-02-15T14:35:50;14.90;94.00
64951;DHT22;51482;47.014;7.652;2024-02-15T14:38:18;14.90;93.30
64951;DHT22;51482;47.014;7.652;2024-02-15T14:40:47;15.20;93.60
64951;DHT22;51482;47.014;7.652;2024-02-15T14:43:23;14.90;93.90
64951;DHT22;51482;47.014;7.652;2024-02-15T14:45:51;14.80;93.70
64951;DHT22;51482;47.014;7.652;2024-02-15T14:48:18;14.90;94.30
64951;DHT22;51482;47.014;7.652;2024-02-15T14:50:45;14.90;94.00
64951;DHT22;51482;47.014;7.652;2024-02-15T14:53:12;14.90;94.10
64951;DHT22;51482;47.014;7.652;2024-02-15T14:55:38;15.40;94.40
64951;DHT22;51482;47.014;7.652;2024-02-15T14:58:08;14.70;93.30
64951;DHT22;51482;47.014;7.652;2024-02-15T15:00:34;14.70;93.30
64951;DHT22;51482;47.014;7.652;2024-02-15T15:03:00;14.60;93.30
64951;DHT22;51482;47.014;7.652;2024-02-15T15:05:25;14.60;93.80
64951;DHT22;51482;47.014;7.652;2024-02-15T15:08:09;14.60;94.40
64951;DHT22;51482;47.014;7.652;2024-02-15T15:10:55;14.60;94.40
64951;DHT22;51482;47.014;7.652;2024-02-15T15:13:39;14.60;95.00
64951;DHT22;51482;47.014;7.652;2024-02-15T15:16:05;14.60;95.70
64951;DHT22;51482;47.014;7.652;2024-02-15T15:18:32;14.50;95.40
64951;DHT22;51482;47.014;7.652;2024-02-15T15:20:59;14.20;95.70
64951;DHT22;51482;47.014;7.652;2024-02-15T15:23:26;14.40;95.30
64951;DHT22;51482;47.014;7.652;2024-02-15T15:25:52;14.90;96.70
64951;DHT22;51482;47.014;7.652;2024-02-15T15:28:17;14.40;96.80
64951;DHT22;51482;47.014;7.652;2024-02-15T15:30:44;14.30;96.00
64951;DHT22;51482;47.014;7.652;2024-02-15T15:33:17;14.30;97.10
64951;DHT22;51482;47.014;7.652;2024-02-15T15:35:43;14.20;96.10
64951;DHT22;51482;47.014;7.652;2024-02-15T15:38:10;14.20;97.20
64951;DHT22;51482;47.014;7.652;2024-02-15T15:40:35;14.50;97.10
64951;DHT22;51482;47.014;7.652;2024-02-15T15:43:01;14.10;96.60
64951;DHT22;51482;47.014;7.652;2024-02-15T15:45:28;14.20;97.80
64951;DHT22;51482;47.014;7.652;2024-02-15T15:47:54;14.10;97.10
64951;DHT22;51482;47.014;7.652;2024-02-15T15:50:20;13.80;97.40
64951;DHT22;51482;47.014;7.652;2024-02-15T15:52:47;14.10;98.00
64951;DHT22;51482;47.014;7.652;2024-02-15T15:55:13;14.00;97.70